Coker Creek, TN (37314)

4:45 PM EDT on August 27, 2016 (GMT -0400)
Notchey Creek - Low | | Change Station
Active Advisory: Special Weather Statement

Elev 1007 ft 35.47 °N, 84.37 °W | Updated 1 minute ago

Rain
Rain
75.2 °F
Feels Like 75 °F
N
0.0
Wind Variable Wind from East
Gusts 6.0 mph

Today
High -- | Low -- °F
--% Chance of Precip.
Yesterday
High -- | Low -- °F
Precip. -- in
Pressure 30.09 in
Visibility 10.0 miles
Clouds Few 6500 ft
Heat Index 75 °F
Dew Point 71 °F
Humidity 88%
Rainfall 0.40 in
Snow Depth Not available.
7:06 AM 8:10 PM
Waning Crescent, 21% visible
METAR KMMI 272035Z AUTO 11004KT 10SM FEW065 32/21 A3009 RMK
Pressure 30.09 in
Visibility 10.0 miles
Clouds Few 6500 ft
Heat Index 75 °F
Dew Point 71 °F
Humidity 88%
Rainfall 0.40 in
Snow Depth Not available.
7:06 AM 8:10 PM
Waning Crescent, 21% visible
METAR KMMI 272035Z AUTO 11004KT 10SM FEW065 32/21 A3009 RMK

10-Day Weather Forecast

Almanac

Astronomy

Aug. 27, 2016 Rise Set
Actual Time
Civil Twilight
Nautical Twilight
Astronomical Twilight
Moon
Length of Visible Light
Length of Day
Tomorrow will be .
, % of the Moon is Illuminated

Today's Extremes

State Highs State Lows

Community

WunderPhotos

Upload Photos

1,935,438 photos uploaded!

WunderBlog® & News

Nearby

Air Quality

  Air Quality AQ Index Pollutant
Not available.

Snow Depth

Station Depth Elevation

Earthquake Activity

City Distance Mag. Time & Date
Minimum magnitude displayed is 2.5.

Coastal Water Temperatures

Place Temperature

Stations

Nearby Weather Stations

Station Location Temp. Windchill Dew Point Humidity Wind Precip. Elev Updated Type
                   

Watches & Warnings

Special Weather Statement
Issued: 3:56 PM EDT Aug. 27, 2016 – National Weather Service

... Significant weather advisory for east central McMinn and western
Monroe counties until 445 PM EDT...

At 356 PM EDT... Doppler radar was tracking a strong thunderstorm 10
miles southeast of Madisonville... moving northwest at 15 mph.

Winds in excess of 40 mph will be possible with this storm.

Locations impacted include...
Athens... Sweetwater... Madisonville... Englewood... Vonore...
Tellico Plains... Niota... Mount Vernon and Citico.

Precautionary/preparedness actions...

Torrential rainfall is also occurring with this storm... and may lead
to localized flooding. Do not drive your vehicle through flooded
roadways.

Frequent cloud to ground lightning is occurring with this storm.
Lightning can strike 10 miles away from a thunderstorm. Seek a safe
shelter inside a building or vehicle.


Lat... Lon 3548 8459 3565 8441 3565 8440 3564 8440
      3565 8436 3567 8435 3566 8433 3540 8411
      3528 8426
time... Mot... loc 1956z 135deg 13kt 3541 8425


Amp.23